AIRPORT INFORMATION 18-07-2018 16:07 KNMI / JUMPRUN.NL

FTEHAM AMSTERDAM/SCHIPHOL NLD -3 m.
181100 ... TAF EHAM 181108Z 1812/1918 28007KT 9999 SCT035
    BECMG 1818/1821 36005KT CAVOK
    BECMG 1903/1906 05006KT
    BECMG 1908/1910 SCT035=

FTEHBK MAASTRICHT/MAASTRICHT- AACHEN
NLD 114 m.
181100 ... TAF EHBK 181112Z 1812/1918 28006KT CAVOK=
FTEHEH EINDHOVEN/EINDHOVEN NLD 22 m.
181100 ... TAF EHEH 180952Z 1812/1918 26005KT CAVOK
    BECMG 1816/1818 31007KT
    BECMG 1822/1901 VRB03KT
    BECMG 1907/1910 29006KT=

FTEHGG GRONINGEN/EELDE NLD 5 m.
181100 ... TAF EHGG 181112Z 1812/1918 29005KT 9999 FEW040
    PROB30 1902/1905 1200 BCFG MIFG=

FTEHRD ROTTERDAM/THE HAGUE AIRPORT NLD -5 m.
181100 ... TAF EHRD 181113Z 1812/1918 28007KT 9999 SCT035
    BECMG 1818/1821 36005KT CAVOK
    PROB30 1902/1905 6000 MIFG
    BECMG 1903/1906 05006KT
    BECMG 1908/1910 SCT035=

ENDOUTPUT
AIRPORT INFORMATION 18-07-2018 16:07 KNMI / JUMPRUN.NL

FCEHDL ARNHEM/DEELEN NLD 48 m.
181300 ... TAF EHDL 181300Z NIL=
FCEHGR GILZE-RIJEN/GILZE-RIJEN NLD 14 m.
181300 ... TAF EHGR 181300Z NIL=
FCEHKD DE KOOY/DE KOOY NLD 1 m.
181300 ... TAF EHKD 181300Z NIL=
FCEHLW LEEUWARDEN/LEEUWARDEN NLD 1 m.
181300 AAB TAF AMD EHLW 181437Z 1813/1901 CNL=
FCEHVK VOLKEL/VOLKEL NLD 21 m.
181300 AAC TAF AMD EHVK 181538Z 1813/1901 CNL=
FCEHWO WOENSDRECHT/WOENSDRECHT NLD 19 m.
181300 AAA TAF AMD EHWO 181405Z 1813/1901 CNL=
ENDOUTPUT